sensor_id;sensor_type;location;lat;lon;timestamp;pressure;altitude;pressure_sealevel;temperature;humidity
18900;BME280;9582;52.018;6.306;2023-02-26T00:01:37;101709.50;;;0.29;100.00
18900;BME280;9582;52.018;6.306;2023-02-26T00:04:05;101707.81;;;0.30;100.00
18900;BME280;9582;52.018;6.306;2023-02-26T00:06:34;101715.56;;;0.33;100.00
18900;BME280;9582;52.018;6.306;2023-02-26T00:09:01;101716.41;;;0.32;100.00
18900;BME280;9582;52.018;6.306;2023-02-26T00:11:28;101720.75;;;0.36;100.00
18900;BME280;9582;52.018;6.306;2023-02-26T00:13:55;101722.44;;;0.34;100.00
18900;BME280;9582;52.018;6.306;2023-02-26T00:16:26;101725.03;;;0.35;100.00
18900;BME280;9582;52.018;6.306;2023-02-26T00:18:56;101733.56;;;0.33;100.00
18900;BME280;9582;52.018;6.306;2023-02-26T00:21:24;101730.13;;;0.32;100.00
18900;BME280;9582;52.018;6.306;2023-02-26T00:23:52;101724.09;;;0.32;100.00
18900;BME280;9582;52.018;6.306;2023-02-26T00:26:19;101716.41;;;0.30;100.00
18900;BME280;9582;52.018;6.306;2023-02-26T00:28:46;101736.09;;;0.30;100.00
18900;BME280;9582;52.018;6.306;2023-02-26T00:31:15;101741.22;;;0.27;100.00
18900;BME280;9582;52.018;6.306;2023-02-26T00:33:42;101751.47;;;0.22;100.00
18900;BME280;9582;52.018;6.306;2023-02-26T00:36:19;101757.44;;;0.21;100.00
18900;BME280;9582;52.018;6.306;2023-02-26T00:39:02;101754.88;;;0.23;100.00
18900;BME280;9582;52.018;6.306;2023-02-26T00:41:32;101760.03;;;0.24;100.00
18900;BME280;9582;52.018;6.306;2023-02-26T00:44:00;101762.66;;;0.27;100.00
18900;BME280;9582;52.018;6.306;2023-02-26T00:46:35;101766.94;;;0.27;100.00
18900;BME280;9582;52.018;6.306;2023-02-26T00:49:12;101759.16;;;0.22;100.00
18900;BME280;9582;52.018;6.306;2023-02-26T00:51:47;101761.75;;;0.22;100.00
18900;BME280;9582;52.018;6.306;2023-02-26T00:54:18;101758.31;;;0.22;100.00
18900;BME280;9582;52.018;6.306;2023-02-26T00:56:46;101756.53;;;0.18;100.00
18900;BME280;9582;52.018;6.306;2023-02-26T00:59:13;101760.75;;;0.14;100.00
18900;BME280;9582;52.018;6.306;2023-02-26T01:01:40;101754.75;;;0.12;100.00
18900;BME280;9582;52.018;6.306;2023-02-26T01:04:08;101756.41;;;0.09;100.00
18900;BME280;9582;52.018;6.306;2023-02-26T01:06:40;101753.81;;;0.07;100.00
18900;BME280;9582;52.018;6.306;2023-02-26T01:09:14;101760.63;;;0.04;100.00
18900;BME280;9582;52.018;6.306;2023-02-26T01:11:41;101761.41;;;-0.02;100.00
18900;BME280;9582;52.018;6.306;2023-02-26T01:14:08;101767.38;;;-0.06;100.00
18900;BME280;9582;52.018;6.306;2023-02-26T01:16:41;101766.50;;;-0.07;100.00
18900;BME280;9582;52.018;6.306;2023-02-26T01:19:17;101764.81;;;-0.06;100.00
18900;BME280;9582;52.018;6.306;2023-02-26T01:21:50;101769.03;;;-0.10;100.00
18900;BME280;9582;52.018;6.306;2023-02-26T01:24:22;101768.94;;;-0.17;100.00
18900;BME280;9582;52.018;6.306;2023-02-26T01:26:50;101770.59;;;-0.21;100.00
18900;BME280;9582;52.018;6.306;2023-02-26T01:29:17;101776.50;;;-0.25;100.00
18900;BME280;9582;52.018;6.306;2023-02-26T01:31:48;101779.03;;;-0.29;100.00
18900;BME280;9582;52.018;6.306;2023-02-26T01:34:18;101779.03;;;-0.29;100.00
18900;BME280;9582;52.018;6.306;2023-02-26T01:36:51;101774.72;;;-0.32;100.00
18900;BME280;9582;52.018;6.306;2023-02-26T01:39:27;101784.13;;;-0.32;100.00
18900;BME280;9582;52.018;6.306;2023-02-26T01:41:59;101774.63;;;-0.36;100.00
18900;BME280;9582;52.018;6.306;2023-02-26T01:44:40;101782.34;;;-0.36;100.00
18900;BME280;9582;52.018;6.306;2023-02-26T01:47:15;101778.00;;;-0.39;100.00
18900;BME280;9582;52.018;6.306;2023-02-26T01:49:43;101790.81;;;-0.42;100.00
18900;BME280;9582;52.018;6.306;2023-02-26T01:53:01;101788.19;;;-0.45;100.00
18900;BME280;9582;52.018;6.306;2023-02-26T01:55:30;101795.91;;;-0.46;100.00
18900;BME280;9582;52.018;6.306;2023-02-26T01:57:59;101796.75;;;-0.46;100.00
18900;BME280;9582;52.018;6.306;2023-02-26T02:00:28;101794.16;;;-0.49;100.00
18900;BME280;9582;52.018;6.306;2023-02-26T02:02:55;101800.06;;;-0.53;100.00
18900;BME280;9582;52.018;6.306;2023-02-26T02:05:28;101798.25;;;-0.60;100.00
18900;BME280;9582;52.018;6.306;2023-02-26T02:07:57;101808.47;;;-0.63;100.00
18900;BME280;9582;52.018;6.306;2023-02-26T02:10:25;101806.66;;;-0.69;100.00
18900;BME280;9582;52.018;6.306;2023-02-26T02:13:01;101816.91;;;-0.70;100.00
18900;BME280;9582;52.018;6.306;2023-02-26T02:15:38;101815.13;;;-0.74;100.00
18900;BME280;9582;52.018;6.306;2023-02-26T02:18:14;101820.16;;;-0.80;100.00
18900;BME280;9582;52.018;6.306;2023-02-26T02:23:54;101836.84;;;-1.05;100.00
18900;BME280;9582;52.018;6.306;2023-02-26T02:26:47;101831.56;;;-1.11;100.00
18900;BME280;9582;52.018;6.306;2023-02-26T02:29:40;101843.53;;;-1.11;100.00
18900;BME280;9582;52.018;6.306;2023-02-26T02:32:13;101839.34;;;-1.08;100.00
18900;BME280;9582;52.018;6.306;2023-02-26T02:34:47;101845.41;;;-1.03;100.00
18900;BME280;9582;52.018;6.306;2023-02-26T02:37:18;101856.63;;;-0.98;100.00
18900;BME280;9582;52.018;6.306;2023-02-26T02:39:49;101858.25;;;-1.01;100.00
18900;BME280;9582;52.018;6.306;2023-02-26T02:42:22;101858.19;;;-1.06;100.00
18900;BME280;9582;52.018;6.306;2023-02-26T02:44:54;101857.25;;;-1.09;100.00
18900;BME280;9582;52.018;6.306;2023-02-26T02:47:25;101856.22;;;-1.19;100.00
18900;BME280;9582;52.018;6.306;2023-02-26T02:49:58;101866.25;;;-1.31;100.00
18900;BME280;9582;52.018;6.306;2023-02-26T02:52:31;101864.22;;;-1.47;100.00
18900;BME280;9582;52.018;6.306;2023-02-26T02:55:05;101865.13;;;-1.44;100.00
18900;BME280;9582;52.018;6.306;2023-02-26T02:57:36;101864.44;;;-1.35;100.00
18900;BME280;9582;52.018;6.306;2023-02-26T03:00:08;101879.97;;;-1.29;100.00
18900;BME280;9582;52.018;6.306;2023-02-26T03:02:43;101866.25;;;-1.30;100.00
18900;BME280;9582;52.018;6.306;2023-02-26T03:05:13;101870.56;;;-1.29;100.00
18900;BME280;9582;52.018;6.306;2023-02-26T03:07:43;101879.13;;;-1.28;100.00
18900;BME280;9582;52.018;6.306;2023-02-26T03:10:13;101879.97;;;-1.29;100.00
18900;BME280;9582;52.018;6.306;2023-02-26T03:12:40;101870.50;;;-1.32;100.00
18900;BME280;9582;52.018;6.306;2023-02-26T03:15:07;101869.69;;;-1.31;100.00
18900;BME280;9582;52.018;6.306;2023-02-26T03:17:42;101879.06;;;-1.31;100.00
18900;BME280;9582;52.018;6.306;2023-02-26T03:20:18;101883.38;;;-1.30;100.00
18900;BME280;9582;52.018;6.306;2023-02-26T03:22:52;101879.91;;;-1.32;100.00
18900;BME280;9582;52.018;6.306;2023-02-26T03:25:26;101877.31;;;-1.34;100.00
18900;BME280;9582;52.018;6.306;2023-02-26T03:28:02;101890.16;;;-1.34;100.00
18900;BME280;9582;52.018;6.306;2023-02-26T03:30:36;101886.69;;;-1.36;100.00
18900;BME280;9582;52.018;6.306;2023-02-26T03:33:11;101887.50;;;-1.37;100.00
18900;BME280;9582;52.018;6.306;2023-02-26T03:35:46;101888.25;;;-1.42;100.00
18900;BME280;9582;52.018;6.306;2023-02-26T03:38:18;101892.50;;;-1.44;100.00
18900;BME280;9582;52.018;6.306;2023-02-26T03:40:50;101895.78;;;-1.50;100.00
18900;BME280;9582;52.018;6.306;2023-02-26T03:43:24;101908.56;;;-1.53;100.00
18900;BME280;9582;52.018;6.306;2023-02-26T03:45:57;101910.25;;;-1.53;100.00
18900;BME280;9582;52.018;6.306;2023-02-26T03:48:30;101910.97;;;-1.59;100.00
18900;BME280;9582;52.018;6.306;2023-02-26T03:51:02;101922.13;;;-1.57;100.00
18900;BME280;9582;52.018;6.306;2023-02-26T03:53:49;101919.56;;;-1.57;100.00
18900;BME280;9582;52.018;6.306;2023-02-26T03:56:23;101922.84;;;-1.64;100.00
18900;BME280;9582;52.018;6.306;2023-02-26T03:59:10;101921.09;;;-1.65;100.00
18900;BME280;9582;52.018;6.306;2023-02-26T04:01:46;101930.47;;;-1.65;100.00
18900;BME280;9582;52.018;6.306;2023-02-26T04:04:21;101936.38;;;-1.69;100.00
18900;BME280;9582;52.018;6.306;2023-02-26T04:06:49;101938.94;;;-1.69;100.00
18900;BME280;9582;52.018;6.306;2023-02-26T04:09:18;101942.44;;;-1.66;100.00
18900;BME280;9582;52.018;6.306;2023-02-26T04:11:45;101939.84;;;-1.67;100.00
18900;BME280;9582;52.018;6.306;2023-02-26T04:14:13;101946.59;;;-1.71;100.00
18900;BME280;9582;52.018;6.306;2023-02-26T04:16:42;101950.03;;;-1.69;100.00
18900;BME280;9582;52.018;6.306;2023-02-26T04:19:10;101954.22;;;-1.74;100.00
18900;BME280;9582;52.018;6.306;2023-02-26T04:21:38;101958.44;;;-1.76;100.00
18900;BME280;9582;52.018;6.306;2023-02-26T04:24:05;101960.94;;;-1.79;100.00
18900;BME280;9582;52.018;6.306;2023-02-26T04:26:33;101972.94;;;-1.78;100.00
18900;BME280;9582;52.018;6.306;2023-02-26T04:29:00;101971.22;;;-1.78;100.00
18900;BME280;9582;52.018;6.306;2023-02-26T04:31:26;101972.94;;;-1.78;100.00
18900;BME280;9582;52.018;6.306;2023-02-26T04:33:53;101979.69;;;-1.82;100.00
18900;BME280;9582;52.018;6.306;2023-02-26T04:36:20;101980.56;;;-1.80;100.00
18900;BME280;9582;52.018;6.306;2023-02-26T04:38:48;101987.38;;;-1.80;100.00
18900;BME280;9582;52.018;6.306;2023-02-26T04:41:14;101983.13;;;-1.81;100.00
18900;BME280;9582;52.018;6.306;2023-02-26T04:43:43;101987.31;;;-1.83;100.00
18900;BME280;9582;52.018;6.306;2023-02-26T04:46:23;101991.59;;;-1.84;100.00
18900;BME280;9582;52.018;6.306;2023-02-26T04:48:50;101990.66;;;-1.87;100.00
18900;BME280;9582;52.018;6.306;2023-02-26T04:51:16;101995.78;;;-1.87;100.00
18900;BME280;9582;52.018;6.306;2023-02-26T04:53:44;102000.91;;;-1.87;100.00
18900;BME280;9582;52.018;6.306;2023-02-26T04:56:12;101998.34;;;-1.87;100.00
18900;BME280;9582;52.018;6.306;2023-02-26T04:58:39;102000.94;;;-1.86;100.00
18900;BME280;9582;52.018;6.306;2023-02-26T05:01:09;102006.97;;;-1.84;100.00
18900;BME280;9582;52.018;6.306;2023-02-26T05:03:37;102009.53;;;-1.84;100.00
18900;BME280;9582;52.018;6.306;2023-02-26T05:06:04;102012.88;;;-1.86;100.00
18900;BME280;9582;52.018;6.306;2023-02-26T05:08:31;102018.84;;;-1.87;100.00
18900;BME280;9582;52.018;6.306;2023-02-26T05:10:57;102025.63;;;-1.89;100.00
18900;BME280;9582;52.018;6.306;2023-02-26T05:13:25;102030.72;;;-1.91;100.00
18900;BME280;9582;52.018;6.306;2023-02-26T05:15:52;102030.69;;;-1.92;100.00
18900;BME280;9582;52.018;6.306;2023-02-26T05:18:19;102034.88;;;-1.96;100.00
18900;BME280;9582;52.018;6.306;2023-02-26T05:20:51;102029.59;;;-2.00;100.00
18900;BME280;9582;52.018;6.306;2023-02-26T05:23:17;102041.59;;;-1.99;100.00
18900;BME280;9582;52.018;6.306;2023-02-26T05:25:44;102036.56;;;-1.96;100.00
18900;BME280;9582;52.018;6.306;2023-02-26T05:28:10;102046.00;;;-1.95;100.00
18900;BME280;9582;52.018;6.306;2023-02-26T05:30:39;102051.03;;;-1.98;100.00
18900;BME280;9582;52.018;6.306;2023-02-26T05:33:06;102055.13;;;-2.05;100.00
18900;BME280;9582;52.018;6.306;2023-02-26T05:35:32;102057.59;;;-2.08;100.00
18900;BME280;9582;52.018;6.306;2023-02-26T05:37:59;102061.94;;;-2.05;100.00
18900;BME280;9582;52.018;6.306;2023-02-26T05:40:25;102061.84;;;-2.08;100.00
18900;BME280;9582;52.018;6.306;2023-02-26T05:42:52;102067.84;;;-2.08;100.00
18900;BME280;9582;52.018;6.306;2023-02-26T05:45:18;102071.28;;;-2.07;100.00
18900;BME280;9582;52.018;6.306;2023-02-26T05:47:46;102079.69;;;-2.13;100.00
18900;BME280;9582;52.018;6.306;2023-02-26T05:50:13;102081.19;;;-2.19;100.00
18900;BME280;9582;52.018;6.306;2023-02-26T05:52:39;102079.25;;;-2.28;100.00
18900;BME280;9582;52.018;6.306;2023-02-26T05:55:07;102077.63;;;-2.26;100.00
18900;BME280;9582;52.018;6.306;2023-02-26T05:57:34;102087.97;;;-2.21;100.00
18900;BME280;9582;52.018;6.306;2023-02-26T06:00:01;102095.69;;;-2.20;100.00
18900;BME280;9582;52.018;6.306;2023-02-26T06:02:38;102094.00;;;-2.19;100.00
18900;BME280;9582;52.018;6.306;2023-02-26T06:05:07;102099.13;;;-2.19;100.00
18900;BME280;9582;52.018;6.306;2023-02-26T06:07:34;102097.50;;;-2.17;100.00
18900;BME280;9582;52.018;6.306;2023-02-26T06:10:00;102103.38;;;-2.20;100.00
18900;BME280;9582;52.018;6.306;2023-02-26T06:12:27;102104.22;;;-2.21;100.00
18900;BME280;9582;52.018;6.306;2023-02-26T06:14:53;102107.59;;;-2.22;100.00
18900;BME280;9582;52.018;6.306;2023-02-26T06:17:20;102113.53;;;-2.23;100.00
18900;BME280;9582;52.018;6.306;2023-02-26T06:19:46;102112.69;;;-2.23;100.00
18900;BME280;9582;52.018;6.306;2023-02-26T06:22:14;102119.50;;;-2.24;100.00
18900;BME280;9582;52.018;6.306;2023-02-26T06:24:40;102124.47;;;-2.30;100.00
18900;BME280;9582;52.018;6.306;2023-02-26T06:27:07;102131.34;;;-2.27;100.00
18900;BME280;9582;52.018;6.306;2023-02-26T06:29:33;102121.13;;;-2.27;100.00
18900;BME280;9582;52.018;6.306;2023-02-26T06:32:01;102133.09;;;-2.26;100.00
18900;BME280;9582;52.018;6.306;2023-02-26T06:34:28;102135.69;;;-2.26;100.00
18900;BME280;9582;52.018;6.306;2023-02-26T06:36:54;102138.06;;;-2.33;100.00
18900;BME280;9582;52.018;6.306;2023-02-26T06:39:22;102142.28;;;-2.35;100.00
18900;BME280;9582;52.018;6.306;2023-02-26T06:41:49;102144.66;;;-2.41;100.00
18900;BME280;9582;52.018;6.306;2023-02-26T06:44:15;102151.16;;;-2.52;100.00
18900;BME280;9582;52.018;6.306;2023-02-26T06:46:42;102152.78;;;-2.54;100.00
18900;BME280;9582;52.018;6.306;2023-02-26T06:49:08;102157.97;;;-2.52;100.00
18900;BME280;9582;52.018;6.306;2023-02-26T06:51:35;102158.00;;;-2.51;100.00
18900;BME280;9582;52.018;6.306;2023-02-26T06:54:01;102166.03;;;-2.40;100.00
18900;BME280;9582;52.018;6.306;2023-02-26T06:56:29;102163.47;;;-2.40;100.00
18900;BME280;9582;52.018;6.306;2023-02-26T06:58:56;102176.31;;;-2.37;100.00
18900;BME280;9582;52.018;6.306;2023-02-26T07:01:22;102180.59;;;-2.38;100.00
18900;BME280;9582;52.018;6.306;2023-02-26T07:03:49;102181.44;;;-2.37;100.00
18900;BME280;9582;52.018;6.306;2023-02-26T07:06:16;102186.81;;;-2.29;100.00
18900;BME280;9582;52.018;6.306;2023-02-26T07:08:42;102186.25;;;-2.19;100.00
18900;BME280;9582;52.018;6.306;2023-02-26T07:11:09;102197.50;;;-2.14;100.00
18900;BME280;9582;52.018;6.306;2023-02-26T07:13:37;102202.75;;;-2.10;100.00
18900;BME280;9582;52.018;6.306;2023-02-26T07:16:04;102199.50;;;-2.04;100.00
18900;BME280;9582;52.018;6.306;2023-02-26T07:18:31;102202.34;;;-1.95;100.00
18900;BME280;9582;52.018;6.306;2023-02-26T07:20:58;102212.81;;;-1.86;100.00
18900;BME280;9582;52.018;6.306;2023-02-26T07:23:24;102219.09;;;-1.77;100.00
18900;BME280;9582;52.018;6.306;2023-02-26T07:25:51;102211.56;;;-1.70;100.00
18900;BME280;9582;52.018;6.306;2023-02-26T07:28:18;102225.56;;;-1.58;100.00
18900;BME280;9582;52.018;6.306;2023-02-26T07:30:46;102226.63;;;-1.51;100.00
18900;BME280;9582;52.018;6.306;2023-02-26T07:33:13;102233.59;;;-1.46;100.00
18900;BME280;9582;52.018;6.306;2023-02-26T07:35:39;102233.78;;;-1.40;100.00
18900;BME280;9582;52.018;6.306;2023-02-26T07:38:06;102236.50;;;-1.34;100.00
18900;BME280;9582;52.018;6.306;2023-02-26T07:40:32;102240.03;;;-1.29;100.00
18900;BME280;9582;52.018;6.306;2023-02-26T07:42:59;102241.25;;;-1.16;100.00
18900;BME280;9582;52.018;6.306;2023-02-26T07:45:25;102243.91;;;-1.11;100.00
18900;BME280;9582;52.018;6.306;2023-02-26T07:47:53;102247.63;;;-1.00;100.00
18900;BME280;9582;52.018;6.306;2023-02-26T07:50:20;102247.94;;;-0.88;100.00
18900;BME280;9582;52.018;6.306;2023-02-26T07:52:50;102245.63;;;-0.76;100.00
18900;BME280;9582;52.018;6.306;2023-02-26T07:55:16;102240.72;;;-0.67;100.00
18900;BME280;9582;52.018;6.306;2023-02-26T07:57:43;102249.38;;;-0.64;100.00
18900;BME280;9582;52.018;6.306;2023-02-26T08:00:10;102241.00;;;-0.56;100.00
18900;BME280;9582;52.018;6.306;2023-02-26T08:02:40;102249.84;;;-0.44;100.00
18900;BME280;9582;52.018;6.306;2023-02-26T08:05:08;102260.41;;;-0.32;100.00
18900;BME280;9582;52.018;6.306;2023-02-26T08:07:35;102253.69;;;-0.25;100.00
18900;BME280;9582;52.018;6.306;2023-02-26T08:10:03;102258.09;;;-0.20;100.00
18900;BME280;9582;52.018;6.306;2023-02-26T08:12:30;102264.28;;;-0.12;100.00
18900;BME280;9582;52.018;6.306;2023-02-26T08:14:57;102259.25;;;-0.06;100.00
18900;BME280;9582;52.018;6.306;2023-02-26T08:17:23;102272.25;;;0.00;100.00
18900;BME280;9582;52.018;6.306;2023-02-26T08:19:50;102275.84;;;0.09;100.00
18900;BME280;9582;52.018;6.306;2023-02-26T08:22:18;102281.06;;;0.12;100.00
18900;BME280;9582;52.018;6.306;2023-02-26T08:24:44;102288.91;;;0.18;100.00
18900;BME280;9582;52.018;6.306;2023-02-26T08:27:11;102282.94;;;0.19;100.00
18900;BME280;9582;52.018;6.306;2023-02-26T08:29:37;102293.34;;;0.25;100.00
18900;BME280;9582;52.018;6.306;2023-02-26T08:32:04;102299.47;;;0.30;100.00
18900;BME280;9582;52.018;6.306;2023-02-26T08:34:30;102297.06;;;0.39;100.00
18900;BME280;9582;52.018;6.306;2023-02-26T08:36:57;102310.84;;;0.41;100.00
18900;BME280;9582;52.018;6.306;2023-02-26T08:39:25;102316.06;;;0.45;100.00
18900;BME280;9582;52.018;6.306;2023-02-26T08:41:51;102315.38;;;0.54;100.00
18900;BME280;9582;52.018;6.306;2023-02-26T08:44:18;102321.44;;;0.56;100.00
18900;BME280;9582;52.018;6.306;2023-02-26T08:46:44;102323.22;;;0.60;100.00
18900;BME280;9582;52.018;6.306;2023-02-26T08:49:11;102331.13;;;0.68;100.00
18900;BME280;9582;52.018;6.306;2023-02-26T08:51:38;102333.84;;;0.77;100.00
18900;BME280;9582;52.018;6.306;2023-02-26T08:54:04;102341.63;;;0.80;100.00
18900;BME280;9582;52.018;6.306;2023-02-26T08:56:32;102335.72;;;0.85;100.00
18900;BME280;9582;52.018;6.306;2023-02-26T08:58:58;102335.84;;;0.91;100.00
18900;BME280;9582;52.018;6.306;2023-02-26T09:01:25;102346.34;;;1.02;100.00
18900;BME280;9582;52.018;6.306;2023-02-26T09:03:52;102337.84;;;1.04;100.00
18900;BME280;9582;52.018;6.306;2023-02-26T09:06:18;102348.28;;;1.13;100.00
18900;BME280;9582;52.018;6.306;2023-02-26T09:08:45;102352.69;;;1.19;100.00
18900;BME280;9582;52.018;6.306;2023-02-26T09:11:11;102355.41;;;1.27;100.00
18900;BME280;9582;52.018;6.306;2023-02-26T09:13:39;102369.19;;;1.29;100.00
18900;BME280;9582;52.018;6.306;2023-02-26T09:16:07;102367.53;;;1.34;100.00
18900;BME280;9582;52.018;6.306;2023-02-26T09:18:33;102373.69;;;1.40;100.00
18900;BME280;9582;52.018;6.306;2023-02-26T09:21:00;102365.91;;;1.39;100.00
18900;BME280;9582;52.018;6.306;2023-02-26T09:23:27;102372.06;;;1.45;100.00
18900;BME280;9582;52.018;6.306;2023-02-26T09:25:55;102379.84;;;1.50;100.00
18900;BME280;9582;52.018;6.306;2023-02-26T09:28:23;102378.31;;;1.59;100.00
18900;BME280;9582;52.018;6.306;2023-02-26T09:30:52;102373.22;;;1.64;100.00
18900;BME280;9582;52.018;6.306;2023-02-26T09:33:18;102378.41;;;1.67;100.00
18900;BME280;9582;52.018;6.306;2023-02-26T09:35:46;102381.88;;;1.66;100.00
18900;BME280;9582;52.018;6.306;2023-02-26T09:38:13;102381.03;;;1.68;100.00
18900;BME280;9582;52.018;6.306;2023-02-26T09:40:43;102391.47;;;1.76;100.00
18900;BME280;9582;52.018;6.306;2023-02-26T09:43:29;102393.22;;;1.77;100.00
18900;BME280;9582;52.018;6.306;2023-02-26T09:46:03;102399.31;;;1.81;100.00
18900;BME280;9582;52.018;6.306;2023-02-26T09:48:33;102398.59;;;1.92;100.00
18900;BME280;9582;52.018;6.306;2023-02-26T09:51:01;102395.22;;;1.95;100.00
18900;BME280;9582;52.018;6.306;2023-02-26T09:53:29;102401.38;;;2.04;100.00
18900;BME280;9582;52.018;6.306;2023-02-26T09:56:00;102405.72;;;2.07;100.00
18900;BME280;9582;52.018;6.306;2023-02-26T09:58:32;102405.06;;;2.20;100.00
18900;BME280;9582;52.018;6.306;2023-02-26T10:01:05;102403.34;;;2.20;100.00
18900;BME280;9582;52.018;6.306;2023-02-26T10:03:43;102407.13;;;2.44;100.00
18900;BME280;9582;52.018;6.306;2023-02-26T10:06:20;102408.78;;;2.37;100.00
18900;BME280;9582;52.018;6.306;2023-02-26T10:08:58;102420.81;;;2.37;100.00
18900;BME280;9582;52.018;6.306;2023-02-26T10:11:35;102416.63;;;2.45;100.00
18900;BME280;9582;52.018;6.306;2023-02-26T10:14:11;102427.88;;;2.50;100.00
18900;BME280;9582;52.018;6.306;2023-02-26T10:16:46;102431.31;;;2.52;100.00
18900;BME280;9582;52.018;6.306;2023-02-26T10:19:17;102434.91;;;2.61;100.00
18900;BME280;9582;52.018;6.306;2023-02-26T10:21:49;102439.28;;;2.67;100.00
18900;BME280;9582;52.018;6.306;2023-02-26T10:24:20;102435.09;;;2.75;100.00
18900;BME280;9582;52.018;6.306;2023-02-26T10:26:51;102443.03;;;2.90;100.00
18900;BME280;9582;52.018;6.306;2023-02-26T10:29:23;102439.72;;;2.99;100.00
18900;BME280;9582;52.018;6.306;2023-02-26T10:32:05;102438.94;;;3.07;100.00
18900;BME280;9582;52.018;6.306;2023-02-26T10:34:36;102442.41;;;3.09;100.00
18900;BME280;9582;52.018;6.306;2023-02-26T10:37:12;102439.94;;;3.20;100.00
18900;BME280;9582;52.018;6.306;2023-02-26T10:39:46;102446.78;;;3.15;100.00
18900;BME280;9582;52.018;6.306;2023-02-26T10:42:17;102447.69;;;3.18;100.00
18900;BME280;9582;52.018;6.306;2023-02-26T10:44:53;102451.16;;;3.22;100.00
18900;BME280;9582;52.018;6.306;2023-02-26T10:47:28;102459.75;;;3.19;100.00
18900;BME280;9582;52.018;6.306;2023-02-26T10:50:02;102449.38;;;3.13;100.00
18900;BME280;9582;52.018;6.306;2023-02-26T10:52:30;102451.94;;;3.13;100.00
18900;BME280;9582;52.018;6.306;2023-02-26T10:55:18;102466.50;;;3.08;100.00
18900;BME280;9582;52.018;6.306;2023-02-26T10:57:50;102459.13;;;3.40;100.00
18900;BME280;9582;52.018;6.306;2023-02-26T11:00:19;102452.94;;;3.26;100.00
18900;BME280;9582;52.018;6.306;2023-02-26T11:02:49;102459.13;;;3.40;100.00
18900;BME280;9582;52.018;6.306;2023-02-26T11:05:19;102456.53;;;3.38;100.00
18900;BME280;9582;52.018;6.306;2023-02-26T11:07:49;102472.09;;;3.44;100.00
18900;BME280;9582;52.018;6.306;2023-02-26T11:10:19;102467.00;;;3.49;100.00
18900;BME280;9582;52.018;6.306;2023-02-26T11:12:47;102456.72;;;3.57;100.00
18900;BME280;9582;52.018;6.306;2023-02-26T11:15:16;102463.78;;;3.76;100.00
18900;BME280;9582;52.018;6.306;2023-02-26T11:17:44;102467.41;;;3.93;100.00
18900;BME280;9582;52.018;6.306;2023-02-26T11:20:17;102462.34;;;4.06;100.00
18900;BME280;9582;52.018;6.306;2023-02-26T11:22:46;102459.94;;;4.28;100.00
18900;BME280;9582;52.018;6.306;2023-02-26T11:25:16;102465.09;;;4.26;100.00
18900;BME280;9582;52.018;6.306;2023-02-26T11:27:47;102468.63;;;4.36;100.00
18900;BME280;9582;52.018;6.306;2023-02-26T11:30:15;102466.94;;;4.42;100.00
18900;BME280;9582;52.018;6.306;2023-02-26T11:32:43;102462.63;;;4.40;100.00
18900;BME280;9582;52.018;6.306;2023-02-26T11:35:14;102472.88;;;4.28;100.00
18900;BME280;9582;52.018;6.306;2023-02-26T11:37:46;102459.94;;;4.31;100.00
18900;BME280;9582;52.018;6.306;2023-02-26T11:40:16;102459.94;;;4.28;100.00
18900;BME280;9582;52.018;6.306;2023-02-26T11:42:47;102453.94;;;4.36;100.00
18900;BME280;9582;52.018;6.306;2023-02-26T11:45:17;102445.41;;;4.52;100.00
18900;BME280;9582;52.018;6.306;2023-02-26T11:47:45;102453.19;;;4.55;100.00
18900;BME280;9582;52.018;6.306;2023-02-26T11:50:18;102438.44;;;4.39;100.00
18900;BME280;9582;52.018;6.306;2023-02-26T11:52:54;102455.63;;;4.28;100.00
18900;BME280;9582;52.018;6.306;2023-02-26T11:55:27;102453.09;;;4.34;100.00
18900;BME280;9582;52.018;6.306;2023-02-26T11:57:55;102453.00;;;4.27;100.00
18900;BME280;9582;52.018;6.306;2023-02-26T12:00:30;102447.91;;;4.34;100.00
18900;BME280;9582;52.018;6.306;2023-02-26T12:02:59;102454.88;;;4.46;100.00
18900;BME280;9582;52.018;6.306;2023-02-26T12:05:30;102453.19;;;4.51;100.00
18900;BME280;9582;52.018;6.306;2023-02-26T12:07:57;102452.28;;;4.47;100.00
18900;BME280;9582;52.018;6.306;2023-02-26T12:10:33;102450.63;;;4.54;100.00
18900;BME280;9582;52.018;6.306;2023-02-26T12:13:09;102444.53;;;4.49;100.00
18900;BME280;9582;52.018;6.306;2023-02-26T12:15:47;102456.56;;;4.41;100.00
18900;BME280;9582;52.018;6.306;2023-02-26T12:18:31;102449.66;;;4.40;100.00
18900;BME280;9582;52.018;6.306;2023-02-26T12:21:14;102440.22;;;4.52;100.00
18900;BME280;9582;52.018;6.306;2023-02-26T12:24:10;102453.22;;;4.58;100.00
18900;BME280;9582;52.018;6.306;2023-02-26T12:26:46;102447.22;;;4.62;100.00
18900;BME280;9582;52.018;6.306;2023-02-26T12:29:35;102453.31;;;4.71;100.00
18900;BME280;9582;52.018;6.306;2023-02-26T12:32:30;102453.94;;;4.36;100.00
18900;BME280;9582;52.018;6.306;2023-02-26T12:35:22;102442.81;;;4.51;100.00
18900;BME280;9582;52.018;6.306;2023-02-26T12:38:04;102436.75;;;4.46;100.00
18900;BME280;9582;52.018;6.306;2023-02-26T12:40:57;102432.50;;;4.61;100.00
18900;BME280;9582;52.018;6.306;2023-02-26T12:43:34;102429.09;;;4.62;100.00
18900;BME280;9582;52.018;6.306;2023-02-26T12:46:09;102428.28;;;4.76;100.00
18900;BME280;9582;52.018;6.306;2023-02-26T12:49:10;102445.53;;;4.75;100.00
18900;BME280;9582;52.018;6.306;2023-02-26T12:51:51;102433.47;;;4.79;100.00
18900;BME280;9582;52.018;6.306;2023-02-26T12:54:38;102438.63;;;4.73;100.00
18900;BME280;9582;52.018;6.306;2023-02-26T12:57:24;102432.56;;;4.68;100.00
18900;BME280;9582;52.018;6.306;2023-02-26T13:00:09;102443.78;;;4.70;100.00
18900;BME280;9582;52.018;6.306;2023-02-26T13:03:25;102443.81;;;4.80;100.00
18900;BME280;9582;52.018;6.306;2023-02-26T13:06:19;102441.19;;;4.70;100.00
18900;BME280;9582;52.018;6.306;2023-02-26T13:08:52;102448.88;;;4.57;100.00
18900;BME280;9582;52.018;6.306;2023-02-26T13:11:40;102454.13;;;4.66;100.00
18900;BME280;9582;52.018;6.306;2023-02-26T13:14:21;102444.59;;;4.61;100.00
18900;BME280;9582;52.018;6.306;2023-02-26T13:16:53;102434.25;;;4.62;100.00
18900;BME280;9582;52.018;6.306;2023-02-26T13:19:30;102437.69;;;4.63;100.00